Time;durP1;ratioP1;P1;durP2;ratioP2;P2;SDS_P1;SDS_P2;PMS_P1;PMS_P2;Temp;Humidity;BMP_temperature;BMP_pressure;BME280_temperature;BME280_humidity;BME280_pressure;Samples;Min_cycle;Max_cycle;Signal;HPM_P1;HPM_P2
2021/11/18 00:00:58;;;;;;;168.48;28.38;;;6.50;99.90;;;5.26;100.00;98670.97;5064190;28;20087;-70
2021/11/18 00:03:27;;;;;;;66.03;23.08;;;6.30;99.90;;;5.29;100.00;98660.66;5067148;28;20048;-69
2021/11/18 00:05:56;;;;;;;151.68;29.23;;;6.40;99.90;;;5.16;100.00;98665.00;5064037;28;20627;-70
2021/11/18 00:08:23;;;;;;;126.07;28.48;;;6.40;99.90;;;5.18;100.00;98671.00;5050939;28;20516;-69
2021/11/18 00:10:57;;;;;;;71.43;23.50;;;6.40;99.90;;;5.24;100.00;98660.66;5054981;28;20083;-70
2021/11/18 00:13:47;;;;;;;97.78;24.52;;;6.40;99.90;;;5.20;100.00;98677.84;5064154;28;20049;-70
2021/11/18 00:16:15;;;;;;;114.03;25.85;;;6.40;99.90;;;5.24;100.00;98673.53;5075349;28;20063;-70
2021/11/18 00:18:42;;;;;;;84.03;23.30;;;6.40;99.90;;;5.23;100.00;98672.69;5064316;28;20056;-71
2021/11/18 00:21:13;;;;;;;62.90;21.95;;;6.40;99.90;;;5.33;100.00;98676.06;5057622;28;20143;-70
2021/11/18 00:23:45;;;;;;;86.45;23.80;;;6.30;99.90;;;5.20;100.00;98680.44;5058520;28;20488;-70
2021/11/18 00:26:13;;;;;;;74.30;22.25;;;6.30;99.90;;;5.25;100.00;98672.69;5069071;28;20535;-70
2021/11/18 00:28:41;;;;;;;97.47;26.50;;;6.40;99.90;;;5.18;100.00;98683.88;5070873;28;20135;-70
2021/11/18 00:31:09;;;;;;;84.13;23.70;;;6.40;99.90;;;5.16;100.00;98676.16;5050110;28;20128;-70
2021/11/18 00:33:38;;;;;;;49.40;20.67;;;6.40;99.90;;;5.31;100.00;98670.06;5057742;28;20064;-70
2021/11/18 00:36:07;;;;;;;56.72;21.90;;;6.50;99.90;;;5.16;100.00;98667.59;5062020;28;20568;-70
2021/11/18 00:38:36;;;;;;;82.68;23.45;;;6.40;99.90;;;5.06;100.00;98677.03;5068388;28;20172;-70
2021/11/18 00:41:04;;;;;;;75.75;23.77;;;6.50;99.90;;;5.15;100.00;98671.00;5073899;28;20139;-69
2021/11/18 00:43:32;;;;;;;92.68;23.23;;;6.50;99.90;;;5.14;100.00;98674.44;5064498;28;20120;-70
2021/11/18 00:45:59;;;;;;;94.72;26.15;;;6.40;99.90;;;5.19;100.00;98673.56;5064736;28;20069;-70
2021/11/18 00:48:28;;;;;;;119.43;27.55;;;6.40;99.90;;;5.18;100.00;98665.88;5062761;28;20481;-70
2021/11/18 00:51:09;;;;;;;93.43;24.90;;;6.40;99.90;;;5.16;100.00;98660.72;5061478;28;20405;-70
2021/11/18 00:53:45;;;;;;;98.45;26.42;;;6.40;99.90;;;5.10;100.00;98665.03;5058882;28;20091;-70
2021/11/18 00:56:13;;;;;;;108.03;27.58;;;6.40;99.90;;;5.09;100.00;98660.75;5067270;28;20084;-70
2021/11/18 00:58:41;;;;;;;91.20;24.58;;;6.40;99.90;;;5.13;100.00;98670.16;5063446;28;20460;-70
2021/11/18 01:01:09;;;;;;;89.80;26.38;;;6.40;99.90;;;5.15;100.00;98682.13;5064112;28;20128;-70
2021/11/18 01:03:37;;;;;;;68.22;23.55;;;6.40;99.90;;;5.23;100.00;98695.00;5062760;28;20048;-71
2021/11/18 01:06:04;;;;;;;82.35;23.30;;;6.40;99.90;;;5.17;100.00;98685.56;5054800;28;20187;-70
2021/11/18 01:08:31;;;;;;;95.82;25.65;;;6.40;99.90;;;5.09;100.00;98689.06;5049087;28;20049;-70
2021/11/18 01:11:10;;;;;;;92.05;25.90;;;6.40;99.90;;;5.12;100.00;98676.16;5049924;28;20040;-70
2021/11/18 01:13:39;;;;;;;77.95;24.90;;;6.40;99.90;;;5.08;100.00;98675.31;5050753;28;20128;-69
2021/11/18 01:16:10;;;;;;;65.05;23.60;;;6.40;99.90;;;5.12;100.00;98689.88;5051770;28;20045;-70
2021/11/18 01:18:38;;;;;;;100.30;27.65;;;6.40;99.90;;;5.03;100.00;98690.75;5046753;28;20049;-70
2021/11/18 01:21:07;;;;;;;93.22;26.15;;;6.50;99.90;;;5.06;100.00;98699.34;5056186;28;20166;-70
2021/11/18 01:23:39;;;;;;;87.30;25.38;;;6.50;99.90;;;5.12;100.00;98695.03;5048550;28;20110;-70
2021/11/18 01:26:10;;;;;;;96.07;26.63;;;6.40;99.90;;;5.08;100.00;98702.75;5054682;28;20461;-70
2021/11/18 01:28:38;;;;;;;106.45;27.35;;;6.50;99.90;;;5.11;100.00;98701.06;5048288;28;20474;-70
2021/11/18 01:31:06;;;;;;;63.88;25.33;;;6.40;99.90;;;5.21;100.00;98704.44;5047871;28;20092;-70
2021/11/18 01:33:34;;;;;;;85.55;25.75;;;6.50;99.90;;;5.21;100.00;98705.31;5040281;28;20042;-70
2021/11/18 01:36:02;;;;;;;78.53;23.00;;;6.50;99.90;;;5.17;100.00;98710.47;5051237;28;20051;-70
2021/11/18 01:38:31;;;;;;;100.00;27.27;;;6.40;99.90;;;5.20;100.00;98705.28;5050510;28;20044;-70
2021/11/18 01:41:05;;;;;;;72.22;24.00;;;6.50;99.90;;;5.20;100.00;98697.56;5032610;28;20131;-70
2021/11/18 01:43:44;;;;;;;76.05;23.60;;;6.50;99.90;;;5.21;100.00;98697.56;5034277;28;20412;-70
2021/11/18 01:46:19;;;;;;;50.97;21.77;;;6.50;99.90;;;5.23;100.00;98706.16;5047167;28;20136;-70
2021/11/18 01:48:51;;;;;;;96.72;26.63;;;6.50;99.90;;;5.11;100.00;98700.16;5039115;28;20156;-70
2021/11/18 01:51:24;;;;;;;95.85;28.48;;;6.50;99.90;;;5.09;100.00;98705.34;5053610;28;20080;-70
2021/11/18 01:53:51;;;;;;;;;;;6.50;99.90;;;5.22;100.00;98703.56;5047834;28;20144;-70
2021/11/18 01:56:27;;;;;;;59.58;22.73;;;6.40;99.90;;;5.23;100.00;98703.59;5049160;28;19927;-70
2021/11/18 01:59:05;;;;;;;72.88;24.35;;;6.40;99.90;;;5.21;100.00;98713.03;5042614;28;20112;-70
2021/11/18 02:01:32;;;;;;;74.10;24.25;;;6.40;99.90;;;5.22;100.00;98707.03;5030396;28;20476;-70
2021/11/18 02:04:07;;;;;;;72.22;23.73;;;6.40;99.90;;;5.18;100.00;98707.88;5034265;28;20565;-70
2021/11/18 02:06:40;;;;;;;70.28;24.05;;;6.50;99.90;;;5.12;100.00;98701.91;5051357;28;20091;-69
2021/11/18 02:09:25;;;;;;;82.43;26.10;;;6.50;99.90;;;5.19;100.00;98709.59;5047842;28;20091;-70
2021/11/18 02:12:04;;;;;;;79.30;24.17;;;6.50;99.90;;;5.16;100.00;98712.19;5042095;28;20144;-71
2021/11/18 02:14:32;;;;;;;68.30;22.58;;;6.50;99.90;;;5.20;100.00;98713.91;5048308;28;20078;-70
2021/11/18 02:17:02;;;;;;;83.40;26.10;;;6.40;99.90;;;5.18;100.00;98723.34;5040827;28;20073;-69
2021/11/18 02:19:40;;;;;;;96.47;28.05;;;6.50;99.90;;;5.18;100.00;98728.47;5048863;28;20469;-70
2021/11/18 02:22:09;;;;;;;88.63;26.27;;;6.50;99.90;;;5.18;100.00;98736.22;5049056;28;20494;-70
2021/11/18 02:24:42;;;;;;;82.68;26.02;;;6.50;99.90;;;5.22;100.00;98742.19;5041798;28;20128;-70
2021/11/18 02:27:21;;;;;;;103.72;27.42;;;6.50;99.90;;;5.25;100.00;98737.06;5045511;28;20095;-69
2021/11/18 02:29:53;;;;;;;55.35;22.20;;;6.50;99.90;;;5.32;100.00;98746.47;5031246;28;20469;-70
2021/11/18 02:32:26;;;;;;;87.78;27.77;;;6.50;99.90;;;5.20;100.00;98739.63;5047274;28;20079;-70
2021/11/18 02:35:09;;;;;;;82.40;26.05;;;6.50;99.90;;;5.13;100.00;98742.22;5025730;28;20067;-70
2021/11/18 02:37:36;;;;;;;99.60;26.90;;;6.60;99.90;;;5.12;100.00;98743.94;5053757;28;20094;-69
2021/11/18 02:40:05;;;;;;;74.40;25.92;;;6.60;99.90;;;5.13;100.00;98742.22;5045038;28;20069;-70
2021/11/18 02:42:33;;;;;;;65.80;23.30;;;6.50;99.90;;;5.35;100.00;98737.88;5030451;28;20096;-70
2021/11/18 02:45:01;;;;;;;68.05;23.48;;;6.50;99.90;;;5.32;100.00;98737.88;5031302;28;20065;-69
2021/11/18 02:51:34;;;;;;;69.35;22.67;;;6.60;99.90;;;5.16;100.00;98742.22;5043904;28;20051;-69
2021/11/18 02:54:04;;;;;;;62.58;23.17;;;6.50;99.90;;;5.24;100.00;98738.78;5047362;28;20053;-69
2021/11/18 02:56:32;;;;;;;51.85;20.13;;;6.50;99.90;;;5.33;100.00;98745.59;5060262;28;20560;-69
2021/11/18 02:59:00;;;;;;;81.25;25.48;;;6.40;99.90;;;5.17;100.00;98761.94;5039439;28;20060;-69
2021/11/18 03:01:36;;;;;;;73.70;24.30;;;6.40;99.90;;;5.12;100.00;98743.94;5033531;28;20057;-69
2021/11/18 03:04:03;;;;;;;69.80;24.17;;;6.40;99.90;;;5.20;100.00;98741.34;5032275;28;20186;-69
2021/11/18 03:06:30;;;;;;;83.32;26.38;;;6.40;99.90;;;5.15;100.00;98737.91;5040280;28;20087;-69
2021/11/18 03:08:57;;;;;;;50.63;21.92;;;6.30;99.90;;;5.26;100.00;98740.47;5052516;28;20149;-69
2021/11/18 03:11:27;;;;;;;51.97;20.40;;;6.30;99.90;;;5.14;100.00;98747.38;5045887;28;20073;-69
2021/11/18 03:13:56;;;;;;;67.97;24.15;;;6.20;99.90;;;5.15;100.00;98743.06;5037839;28;20123;-69
2021/11/18 03:16:24;;;;;;;92.57;24.90;;;6.20;99.90;;;5.05;100.00;98743.97;5046543;28;20464;-69
2021/11/18 03:18:51;;;;;;;85.90;25.42;;;6.20;99.90;;;4.94;100.00;98749.09;5044868;28;20081;-69
2021/11/18 03:21:25;;;;;;;47.05;21.73;;;6.30;99.90;;;5.06;100.00;98756.81;5055668;28;20119;-69
2021/11/18 03:23:54;;;;;;;81.63;24.85;;;6.30;99.90;;;5.00;100.00;98757.69;5054848;28;20096;-69
2021/11/18 03:26:28;;;;;;;59.58;23.75;;;6.30;99.90;;;5.12;100.00;98741.34;5044468;28;20121;-69
2021/11/18 03:28:57;;;;;;;92.72;26.67;;;6.30;99.90;;;5.07;100.00;98743.09;5048472;28;20171;-69
2021/11/18 03:31:25;;;;;;;79.63;23.88;;;6.30;99.90;;;5.05;100.00;98754.25;5050060;28;20080;-69
2021/11/18 03:34:04;;;;;;;91.25;27.48;;;6.30;99.90;;;5.07;100.00;98763.69;5050423;28;20084;-69
2021/11/18 03:36:31;;;;;;;73.07;24.77;;;6.30;99.90;;;5.08;100.00;98772.25;5028575;28;20119;-69
2021/11/18 03:39:00;;;;;;;65.80;23.77;;;6.40;99.90;;;5.22;100.00;98765.34;5028661;28;20127;-69
2021/11/18 03:41:30;;;;;;;79.07;25.23;;;6.30;99.90;;;5.13;100.00;98776.53;5042888;28;20080;-69
2021/11/18 03:44:02;;;;;;;84.50;25.17;;;6.30;99.90;;;5.09;100.00;98787.69;5050083;28;20124;-69
2021/11/18 03:46:36;;;;;;;65.05;23.08;;;6.40;99.90;;;5.13;100.00;98784.28;5040139;28;20489;-69
2021/11/18 03:49:07;;;;;;;84.15;23.73;;;6.40;99.90;;;5.11;100.00;98774.81;5047979;28;20111;-69
2021/11/18 03:51:34;;;;;;;87.82;26.23;;;6.30;99.90;;;5.02;100.00;98778.28;5064243;28;20081;-69
2021/11/18 03:54:07;;;;;;;56.83;22.25;;;6.40;99.90;;;5.17;100.00;98783.38;5045062;28;20166;-69
2021/11/18 03:56:39;;;;;;;92.57;25.63;;;6.30;99.90;;;5.07;100.00;98771.41;5068495;28;20482;-70
2021/11/18 03:59:20;;;;;;;83.55;26.02;;;6.30;99.90;;;5.02;100.00;98766.25;5058184;28;20072;-69
2021/11/18 04:01:50;;;;;;;64.80;23.40;;;6.30;99.90;;;4.98;100.00;98774.84;5035370;28;20049;-69
2021/11/18 04:04:24;;;;;;;68.68;23.88;;;6.20;99.90;;;5.00;100.00;98785.13;5049028;28;20394;-69
2021/11/18 04:06:51;;;;;;;69.35;25.08;;;6.20;99.90;;;4.98;100.00;98776.56;5041386;28;20081;-69
2021/11/18 04:09:19;;;;;;;64.75;23.85;;;6.10;99.90;;;5.00;100.00;98773.13;5044304;28;20051;-70
2021/11/18 04:11:51;;;;;;;82.18;24.25;;;6.20;99.90;;;4.91;100.00;98762.00;5051296;28;20450;-69
2021/11/18 04:14:20;;;;;;;92.60;25.33;;;6.20;99.90;;;4.89;100.00;98767.13;5037825;28;20061;-69
2021/11/18 04:16:47;;;;;;;72.38;23.77;;;6.20;99.90;;;4.91;100.00;98762.00;5057805;28;20394;-69
2021/11/18 04:19:15;;;;;;;57.42;22.23;;;6.10;99.90;;;5.01;100.00;98774.81;5039344;28;20128;-69
2021/11/18 04:21:44;;;;;;;58.95;22.20;;;6.10;99.90;;;4.90;100.00;98780.84;5060460;28;20131;-69
2021/11/18 04:24:17;;;;;;;75.85;23.92;;;6.10;99.90;;;4.86;100.00;98779.13;5051267;28;20522;-70
2021/11/18 04:26:45;;;;;;;67.75;22.08;;;6.10;99.90;;;4.80;100.00;98780.00;5046832;28;20128;-69
2021/11/18 04:29:17;;;;;;;48.45;19.83;;;6.00;99.90;;;5.00;100.00;98778.28;5042324;28;20501;-69
2021/11/18 04:31:44;;;;;;;70.13;24.67;;;6.00;99.90;;;4.83;100.00;98777.41;5039730;28;20087;-69
2021/11/18 04:34:11;;;;;;;72.95;24.70;;;6.00;99.90;;;4.95;100.00;98781.69;5062369;28;20123;-69
2021/11/18 04:36:39;;;;;;;85.20;28.42;;;6.00;99.90;;;4.81;100.00;98780.00;5068519;28;20076;-69
2021/11/18 04:39:08;;;;;;;59.60;22.75;;;6.00;99.90;;;4.87;100.00;98778.28;5030373;28;20120;-69
2021/11/18 04:41:35;;;;;;;60.75;23.38;;;6.00;99.90;;;4.84;100.00;98783.44;5039311;28;20409;-69
2021/11/18 04:44:04;;;;;;;62.63;21.75;;;6.00;99.90;;;4.78;100.00;98785.13;5052553;28;20099;-69
2021/11/18 04:46:31;;;;;;;58.17;22.98;;;5.90;99.90;;;4.79;100.00;98792.00;5034098;28;20182;-69
2021/11/18 04:48:58;;;;;;;50.58;20.55;;;5.90;99.90;;;4.78;100.00;98797.13;5046998;28;20049;-69
2021/11/18 04:51:27;;;;;;;50.00;20.33;;;5.80;99.90;;;4.77;100.00;98795.44;5044568;28;20129;-69
2021/11/18 04:53:56;;;;;;;49.38;19.08;;;5.80;99.90;;;4.76;100.00;98791.13;5049817;28;20072;-69
2021/11/18 04:56:24;;;;;;;49.95;21.60;;;5.80;99.90;;;4.81;100.00;98791.97;5044464;28;20117;-69
2021/11/18 04:58:53;;;;;;;48.17;18.38;;;5.70;99.90;;;4.73;100.00;98806.56;5039380;28;20087;-69
2021/11/18 05:01:21;;;;;;;41.05;18.02;;;5.80;99.90;;;4.78;100.00;98798.00;5039436;28;20497;-69
2021/11/18 05:03:48;;;;;;;41.80;18.88;;;5.70;99.90;;;4.68;100.00;98808.28;5033527;28;20479;-69
2021/11/18 05:06:15;;;;;;;45.00;19.30;;;5.60;99.90;;;4.62;100.00;98806.56;5062417;28;20045;-69
2021/11/18 05:08:42;;;;;;;59.05;20.40;;;5.60;99.90;;;4.56;100.00;98801.41;5060836;28;20110;-69
2021/11/18 05:11:10;;;;;;;54.58;19.88;;;5.50;99.90;;;4.52;100.00;98804.84;5048879;28;20168;-69
2021/11/18 05:13:39;;;;;;;49.30;19.48;;;5.50;99.90;;;4.44;100.00;98809.09;5031457;28;20084;-69
2021/11/18 05:16:11;;;;;;;129.10;26.92;;;5.50;99.90;;;4.30;100.00;98811.66;5043196;28;20519;-69
2021/11/18 05:18:38;;;;;;;56.05;19.65;;;5.50;99.90;;;4.39;100.00;98812.53;5062997;28;20456;-69
2021/11/18 05:21:07;;;;;;;49.15;20.08;;;5.50;99.90;;;4.38;100.00;98808.25;5050554;28;20087;-69
2021/11/18 05:23:36;;;;;;;55.95;21.10;;;5.50;99.90;;;4.34;100.00;98814.22;5052406;28;20178;-69
2021/11/18 05:26:04;;;;;;;43.08;19.33;;;5.50;99.90;;;4.39;100.00;98806.53;5054224;28;20445;-69
2021/11/18 05:28:31;;;;;;;50.10;18.88;;;5.40;99.90;;;4.50;100.00;98815.13;5050751;28;20103;-69
2021/11/18 05:31:00;;;;;;;63.72;20.35;;;5.50;99.90;;;4.58;100.00;98816.00;5032986;28;20128;-69
2021/11/18 05:33:28;;;;;;;71.00;22.15;;;5.50;99.90;;;4.51;100.00;98815.97;5043068;28;20040;-70
2021/11/18 05:35:56;;;;;;;220.00;28.77;;;5.60;99.90;;;4.40;100.00;98821.09;5050218;28;20152;-69
2021/11/18 05:38:24;;;;;;;72.90;22.02;;;5.60;99.90;;;4.53;100.00;98820.25;5059932;28;20079;-69
2021/11/18 05:40:52;;;;;;;118.13;24.50;;;5.50;99.90;;;4.48;100.00;98819.41;5045169;28;20611;-70
2021/11/18 05:43:21;;;;;;;461.95;39.45;;;5.60;99.90;;;4.36;100.00;98821.97;5051762;28;20509;-69
2021/11/18 05:45:48;;;;;;;253.63;28.95;;;5.50;99.90;;;4.31;100.00;98823.63;5034332;28;20128;-69
2021/11/18 05:48:18;;;;;;;305.02;32.42;;;5.50;99.90;;;4.24;100.00;98825.31;5052490;28;20543;-69
2021/11/18 05:50:52;;;;;;;686.63;45.45;;;5.50;99.90;;;4.16;100.00;98827.03;5044581;28;20127;-70
2021/11/18 05:53:25;;;;;;;316.30;29.10;;;5.50;99.90;;;4.28;100.00;98833.91;5071419;28;20124;-69
2021/11/18 05:55:53;;;;;;;432.02;34.80;;;5.50;99.90;;;4.30;100.00;98838.22;5054660;28;20069;-69
2021/11/18 05:58:21;;;;;;;537.72;41.65;;;5.50;99.90;;;4.16;100.00;98838.16;5051577;28;20087;-69
2021/11/18 06:00:48;;;;;;;183.57;26.38;;;5.50;99.90;;;4.39;100.00;98832.25;5047653;28;20541;-69
2021/11/18 06:03:15;;;;;;;235.30;27.60;;;5.60;99.90;;;4.36;100.00;98825.38;5052078;28;20052;-69
2021/11/18 06:05:42;;;;;;;341.33;33.05;;;5.50;99.90;;;4.42;100.00;98826.25;5044109;28;20164;-70
2021/11/18 06:08:10;;;;;;;529.47;40.20;;;5.50;99.90;;;4.10;100.00;98837.28;5055223;28;20151;-69
2021/11/18 06:10:39;;;;;;;478.10;39.03;;;5.50;99.90;;;4.30;100.00;98840.78;5055611;28;20490;-69
2021/11/18 06:13:07;;;;;;;213.32;25.33;;;5.60;99.90;;;4.25;100.00;98834.78;5032338;28;20053;-69
2021/11/18 06:15:34;;;;;;;241.80;24.73;;;5.50;99.90;;;4.22;100.00;98828.75;5040531;28;20091;-69
2021/11/18 06:18:02;;;;;;;568.85;44.60;;;5.50;99.90;;;4.12;100.00;98833.00;5042994;28;20537;-69
2021/11/18 06:20:29;;;;;;;386.92;32.75;;;5.40;99.90;;;4.08;100.00;98833.84;5044745;28;20037;-69
2021/11/18 06:22:56;;;;;;;447.02;36.97;;;5.40;99.90;;;4.06;100.00;98830.41;5045939;28;20412;-69
2021/11/18 06:25:28;;;;;;;267.45;27.88;;;5.40;99.90;;;4.17;100.00;98829.63;5070522;28;20132;-69
2021/11/18 06:27:55;;;;;;;316.25;34.42;;;5.30;99.90;;;4.00;100.00;98835.56;5053548;28;20080;-69
2021/11/18 06:30:33;;;;;;;177.38;25.52;;;5.30;99.90;;;4.20;100.00;98828.78;5059808;28;20477;-69
2021/11/18 06:33:00;;;;;;;105.28;23.35;;;5.30;99.90;;;4.07;100.00;98829.56;5067973;28;20135;-69
2021/11/18 06:35:27;;;;;;;105.00;24.17;;;5.20;99.90;;;4.12;100.00;98823.59;5050692;28;20205;-69
2021/11/18 06:37:57;;;;;;;166.13;25.05;;;5.20;99.90;;;4.15;100.00;98831.31;5045067;28;20540;-69
2021/11/18 06:40:25;;;;;;;65.50;21.70;;;5.20;99.90;;;4.29;100.00;98833.06;5065472;28;20132;-69
2021/11/18 06:42:52;;;;;;;202.27;30.05;;;5.30;99.90;;;4.21;100.00;98825.34;5031754;28;20049;-69
2021/11/18 06:45:26;;;;;;;91.38;23.33;;;5.30;99.90;;;4.27;100.00;98829.66;5051746;28;20159;-69
2021/11/18 06:47:53;;;;;;;164.15;26.13;;;5.40;99.90;;;4.29;100.00;98840.75;5063634;28;20365;-69
2021/11/18 06:50:21;;;;;;;160.77;28.85;;;5.40;99.90;;;4.15;100.00;98844.19;5049289;28;20045;-69
2021/11/18 06:52:48;;;;;;;157.60;25.85;;;5.40;99.90;;;4.27;100.00;98852.78;5050473;28;20049;-69
2021/11/18 06:55:16;;;;;;;610.17;43.70;;;5.40;99.90;;;4.12;100.00;98851.00;5053042;28;20482;-69
2021/11/18 06:57:43;;;;;;;149.43;24.58;;;5.50;99.90;;;4.34;100.00;98846.81;5066515;28;20577;-70
2021/11/18 07:00:12;;;;;;;163.23;26.13;;;5.40;99.90;;;4.46;100.00;98854.53;5070232;28;20128;-69
2021/11/18 07:02:46;;;;;;;275.33;29.67;;;5.50;99.90;;;4.48;100.00;98867.41;5062795;28;20049;-69
2021/11/18 07:05:14;;;;;;;165.95;28.92;;;5.50;99.90;;;4.47;100.00;98871.69;5037811;28;20124;-69
2021/11/18 07:07:41;;;;;;;106.57;24.33;;;5.50;99.90;;;4.50;100.00;98876.81;5069444;28;20112;-70
2021/11/18 07:10:21;;;;;;;203.48;25.45;;;5.60;99.90;;;4.50;100.00;98879.41;5061554;28;20131;-69
2021/11/18 07:12:52;;;;;;;112.65;26.25;;;5.60;99.90;;;4.57;100.00;98880.28;5049128;28;20053;-70
2021/11/18 07:15:19;;;;;;;398.83;34.97;;;5.70;99.90;;;4.55;100.00;98882.84;5043396;28;20052;-69
2021/11/18 07:17:52;;;;;;;83.25;22.75;;;5.70;99.90;;;4.75;100.00;98882.88;5036525;28;20045;-69
2021/11/18 07:20:19;;;;;;;100.88;27.55;;;5.80;99.90;;;4.70;100.00;98891.44;5068148;28;20064;-69
2021/11/18 07:22:46;;;;;;;136.38;27.75;;;5.80;99.90;;;4.57;100.00;98888.84;5029743;28;20120;-69
2021/11/18 07:25:18;;;;;;;105.95;25.80;;;5.80;99.90;;;4.85;100.00;98890.63;5030953;28;20060;-69
2021/11/18 07:27:46;;;;;;;96.78;25.17;;;5.80;99.90;;;4.92;100.00;98889.75;5039949;28;20490;-69
2021/11/18 07:30:15;;;;;;;76.78;25.95;;;5.90;99.90;;;4.79;100.00;98889.75;5048655;28;20602;-69
2021/11/18 07:32:43;;;;;;;77.20;27.70;;;5.90;99.90;;;4.84;100.00;98894.06;5045864;28;20139;-69
2021/11/18 07:35:11;;;;;;;60.75;24.95;;;6.00;99.90;;;4.87;100.00;98883.75;5060111;28;20460;-69
2021/11/18 07:37:38;;;;;;;58.33;25.35;;;6.00;99.90;;;4.90;100.00;98887.16;5057493;28;20080;-69
2021/11/18 07:40:09;;;;;;;56.75;23.83;;;6.00;99.90;;;5.02;100.00;98894.06;5068286;28;20178;-69
2021/11/18 07:42:37;;;;;;;50.20;22.17;;;6.10;99.90;;;5.09;100.00;98910.38;5053402;28;20092;-69
2021/11/18 07:45:06;;;;;;;63.40;23.50;;;6.10;99.90;;;5.18;100.00;98911.25;5047810;28;20156;-69
2021/11/18 07:47:34;;;;;;;60.75;26.27;;;6.20;99.90;;;5.29;100.00;98910.38;5038668;28;20136;-69
2021/11/18 07:50:02;;;;;;;53.00;24.13;;;6.30;99.90;;;5.41;100.00;98910.38;5048631;28;20132;-69
2021/11/18 07:52:29;;;;;;;45.42;22.27;;;6.30;99.90;;;5.43;100.00;98906.09;5063701;28;20050;-69
2021/11/18 07:54:56;;;;;;;54.88;24.20;;;6.40;99.90;;;5.49;100.00;98912.94;5037205;28;20132;-69
2021/11/18 07:57:23;;;;;;;47.60;23.27;;;6.50;99.90;;;5.47;100.00;98912.09;5047597;28;20204;-69
2021/11/18 07:59:50;;;;;;;42.92;21.45;;;6.50;99.90;;;5.58;100.00;98918.94;5044859;28;20147;-70
2021/11/18 08:02:17;;;;;;;41.63;20.23;;;6.50;99.90;;;5.66;100.00;98924.09;5058582;28;20152;-69
2021/11/18 08:04:44;;;;;;;51.80;23.38;;;6.60;99.90;;;5.64;100.00;98918.09;5050043;28;20192;-69
2021/11/18 08:07:11;;;;;;;50.53;24.17;;;6.60;99.90;;;5.60;100.00;98916.38;5048581;28;20092;-69
2021/11/18 08:09:38;;;;;;;44.55;21.27;;;6.70;99.90;;;5.75;100.00;98921.50;5049257;28;20111;-69
2021/11/18 08:12:07;;;;;;;41.65;20.98;;;6.80;99.90;;;5.83;100.00;98918.91;5049867;28;20132;-69
2021/11/18 08:14:34;;;;;;;46.92;23.15;;;6.80;99.90;;;5.82;100.00;98925.78;5049249;28;20068;-69
2021/11/18 08:17:01;;;;;;;45.58;23.00;;;6.80;99.90;;;5.81;100.00;98923.19;5062840;28;20450;-69
2021/11/18 08:19:28;;;;;;;49.83;22.02;;;6.90;99.90;;;5.92;100.00;98924.03;5054485;28;20072;-69
2021/11/18 08:21:58;;;;;;;46.50;22.67;;;6.90;99.90;;;6.01;100.00;98926.63;5056283;28;20131;-69
2021/11/18 08:24:26;;;;;;;45.15;23.60;;;7.00;99.90;;;6.02;100.00;98935.19;5038791;28;20068;-69
2021/11/18 08:26:52;;;;;;;44.92;22.95;;;7.00;99.90;;;5.98;100.00;98934.38;5041545;28;20525;-69
2021/11/18 08:29:25;;;;;;;50.00;24.55;;;7.00;99.90;;;6.02;100.00;98941.25;5046291;28;20481;-69
2021/11/18 08:31:53;;;;;;;62.10;27.05;;;7.00;99.90;;;5.75;100.00;98946.41;5035738;28;20060;-69
2021/11/18 08:34:22;;;;;;;50.58;24.23;;;7.00;99.90;;;5.93;100.00;98930.03;5052281;28;20417;-69
2021/11/18 08:36:50;;;;;;;47.15;22.73;;;7.00;99.90;;;6.11;100.00;98927.44;5055068;28;20156;-69
2021/11/18 08:39:22;;;;;;;56.45;26.70;;;7.00;99.90;;;5.91;100.00;98935.22;5065617;28;20072;-69
2021/11/18 08:42:00;;;;;;;54.85;25.88;;;7.00;99.90;;;5.85;100.00;98938.66;5030851;28;20425;-70
2021/11/18 08:44:31;;;;;;;52.85;25.55;;;7.00;99.90;;;5.80;100.00;98936.97;5033190;28;20155;-69
2021/11/18 08:46:58;;;;;;;45.70;22.58;;;7.10;99.90;;;6.13;100.00;98938.59;5044015;28;20128;-69
2021/11/18 08:49:26;;;;;;;53.17;23.50;;;7.10;99.90;;;6.25;100.00;98940.31;5050684;28;20488;-69
2021/11/18 08:51:54;;;;;;;54.75;26.88;;;7.20;99.90;;;6.25;100.00;98940.31;5065974;28;20127;-69
2021/11/18 08:54:26;;;;;;;54.33;23.58;;;7.30;99.90;;;6.45;100.00;98935.94;5044081;28;20067;-69
2021/11/18 08:56:56;;;;;;;47.03;24.73;;;7.30;99.90;;;6.34;100.00;98936.81;5053679;28;20076;-69
2021/11/18 08:59:24;;;;;;;53.63;25.48;;;7.30;99.90;;;6.28;100.00;98945.44;5044976;28;20055;-70
2021/11/18 09:01:59;;;;;;;48.28;24.75;;;7.40;99.90;;;6.27;100.00;98938.56;5068168;28;20401;-69
2021/11/18 09:04:29;;;;;;;46.17;23.58;;;7.40;99.90;;;6.24;100.00;98951.47;5070801;28;20072;-69
2021/11/18 09:06:56;;;;;;;48.88;23.45;;;7.40;99.90;;;6.48;100.00;98948.81;5038780;28;20087;-70
2021/11/18 09:09:27;;;;;;;43.25;23.10;;;7.40;99.90;;;6.65;100.00;98953.88;5043720;28;20463;-70
2021/11/18 09:11:57;;;;;;;50.42;24.75;;;7.50;99.90;;;6.44;100.00;98952.25;5045347;28;20087;-70
2021/11/18 09:14:28;;;;;;;46.28;23.15;;;7.50;99.90;;;6.69;100.00;98963.34;5052488;28;20048;-69
2021/11/18 09:16:56;;;;;;;46.65;22.40;;;7.60;99.90;;;6.64;100.00;98966.81;5051192;28;20044;-69
2021/11/18 09:19:28;;;;;;;45.47;22.95;;;7.70;99.90;;;6.42;100.00;98961.72;5045338;28;20065;-69
2021/11/18 09:21:58;;;;;;;36.17;20.38;;;7.60;99.90;;;6.24;100.00;98970.38;5039272;28;20153;-69
2021/11/18 09:24:55;;;;;;;44.20;22.23;;;7.50;99.90;;;6.25;100.00;98966.09;5034813;28;20042;-70
2021/11/18 09:27:33;;;;;;;45.67;22.05;;;7.50;99.90;;;6.12;100.00;98970.41;5032432;28;20092;-69
2021/11/18 09:30:02;;;;;;;41.80;24.17;;;7.50;99.90;;;6.18;100.00;98964.38;5040731;28;20198;-69
2021/11/18 09:32:32;;;;;;;47.05;24.45;;;7.50;99.90;;;6.21;100.00;98961.81;5052733;28;20152;-69
2021/11/18 09:35:06;;;;;;;48.50;23.77;;;7.60;99.90;;;6.57;100.00;98970.25;5040455;28;20132;-70
2021/11/18 09:37:33;;;;;;;50.42;25.05;;;7.60;99.90;;;6.31;100.00;98980.69;5032685;28;20477;-70
2021/11/18 09:40:04;;;;;;;49.53;27.63;;;7.70;99.90;;;6.28;100.00;98984.13;5051293;28;20132;-69
2021/11/18 09:43:02;;;;;;;49.78;27.10;;;7.70;99.90;;;6.32;100.00;98978.09;5071508;28;20390;-69
2021/11/18 09:45:32;;;;;;;47.75;24.33;;;7.70;99.90;;;6.63;100.00;98977.97;5030961;28;20129;-69
2021/11/18 09:48:23;;;;;;;44.03;24.58;;;7.80;99.90;;;6.90;100.00;98982.16;5031070;28;20434;-69
2021/11/18 09:51:02;;;;;;;40.25;21.48;;;7.90;99.90;;;7.00;100.00;98982.97;5063275;28;20131;-69
2021/11/18 09:54:02;;;;;;;48.38;23.27;;;8.00;99.90;;;6.57;100.00;98983.16;5037401;28;20491;-69
2021/11/18 09:56:42;;;;;;;48.10;23.80;;;8.20;99.90;;;6.53;100.00;98991.78;5064065;28;20081;-69
2021/11/18 09:59:44;;;;;;;45.70;21.77;;;8.20;99.90;;;6.51;100.00;98978.91;5034849;28;20125;-69
2021/11/18 10:02:32;;;;;;;45.60;23.50;;;8.00;99.90;;;6.40;100.00;98968.59;5051369;28;20476;-69
2021/11/18 10:05:32;;;;;;;49.13;22.98;;;8.00;99.90;;;6.73;100.00;98960.72;5050110;28;20412;-69
2021/11/18 10:08:13;;;;;;;45.83;24.73;;;7.90;99.90;;;6.39;100.00;98974.66;5043202;28;20090;-69
2021/11/18 10:10:58;;;;;;;43.75;21.63;;;8.00;99.90;;;6.54;100.00;98968.56;5060082;28;20555;-69
2021/11/18 10:13:58;;;;;;;41.00;19.58;;;8.10;99.90;;;6.90;100.00;98969.25;5047856;28;20052;-70
2021/11/18 10:16:40;;;;;;;41.10;22.83;;;8.10;99.90;;;7.00;100.00;98970.94;5041110;28;20573;-69
2021/11/18 10:19:09;;;;;;;37.08;20.83;;;8.20;99.90;;;6.98;100.00;98971.78;5069870;28;20492;-69
2021/11/18 10:21:45;;;;;;;35.85;18.15;;;8.30;99.90;;;6.52;100.00;98967.69;5061077;28;20079;-69
2021/11/18 10:24:20;;;;;;;36.38;19.45;;;8.40;99.90;;;7.01;100.00;98964.03;5046832;28;20107;-69
2021/11/18 10:27:09;;;;;;;36.20;17.85;;;8.30;99.90;;;6.76;100.00;98959.00;5048213;28;20060;-69
2021/11/18 10:30:05;;;;;;;36.08;17.27;;;8.40;99.90;;;6.71;100.00;98953.00;5051286;28;20049;-69